LGSM Airport Information

Runway Information
Runway 09 Length 6706 ft width 148 ft
Elevation 20 ft Threshold 230 ft Heading 94
Runway 27 Length 6706 ft Width 148 ft
Elevation 10 ft Threshold 0 ft Heading 274
Airport Frequencies
Type A/G Name RDO Frequency 563.7 MHZ
Type APP Name APP Frequency 122.1 MHZ
Type TWR Name TWR Frequency 122.1 MHZ
Airport Navaids
Type VOR-DME Name Samos Frequency 111600 KHZ
Type NDB Name Samos Frequency 375 KHZ
Airport Weather Information & NOTAM
ADDS - METARS form results

(1906 UTC 25 June 2018)
 
METAR text: LGSM 251850Z 00000KT CAVOK 26/20 Q1008
Conditions at: LGSM (SAMOS AIRPORT , GR) observed 1850 UTC 25 June 2018
Temperature: 26.0°C (79°F)
Dewpoint: 20.0°C (68°F) [RH = 70%]
Pressure (altimeter): 29.76 inches Hg (1008.0 mb)
Winds: calm
Visibility: 6 or more miles (10+ km)
Ceiling: ceiling and visibility are OK
Clouds: unknown
Weather: no significant weather observed at this time

METAR text: LGSM 251820Z 30002KT CAVOK 26/20 Q1008
Conditions at: LGSM (SAMOS AIRPORT , GR) observed 1820 UTC 25 June 2018
Temperature: 26.0°C (79°F)
Dewpoint: 20.0°C (68°F) [RH = 70%]
Pressure (altimeter): 29.76 inches Hg (1008.0 mb)
Winds: from the WNW (300 degrees) at 2 MPH (2 knots; 1.0 m/s)
Visibility: 6 or more miles (10+ km)
Ceiling: ceiling and visibility are OK
Clouds: unknown
Weather: no significant weather observed at this time